createdAt,value
2022-09-01T16:34:28.567Z,22.06
2022-09-01T16:46:19.520Z,22.05
2022-09-01T16:49:28.741Z,21.43
2022-09-01T16:52:05.634Z,21.20
2022-09-01T16:54:45.029Z,20.64
2022-09-01T16:57:36.633Z,20.50
2022-09-01T17:00:09.335Z,20.05
2022-09-01T17:03:08.062Z,19.79
2022-09-01T17:05:54.575Z,19.64
2022-09-01T17:08:21.718Z,19.41
2022-09-01T17:10:57.694Z,19.31
2022-09-01T17:13:36.272Z,19.19
2022-09-01T17:16:16.159Z,19.15
2022-09-01T17:18:48.454Z,19.02
2022-09-01T17:21:22.257Z,18.97
2022-09-01T17:23:57.960Z,18.85
2022-09-01T17:26:29.886Z,18.79
2022-09-01T17:29:01.116Z,18.68
2022-09-01T17:31:59.792Z,18.63
2022-09-01T17:34:48.408Z,18.60
2022-09-01T17:37:56.372Z,18.56
2022-09-01T17:40:52.908Z,18.52
2022-09-01T17:43:46.033Z,18.43
2022-09-01T17:46:31.748Z,18.42
2022-09-01T17:49:28.017Z,18.28
2022-09-01T17:52:08.084Z,18.23
2022-09-01T17:54:41.691Z,18.21
2022-09-01T17:57:32.877Z,18.21
2022-09-01T18:00:05.968Z,18.13
2022-09-01T18:02:46.790Z,18.09
2022-09-01T18:05:16.282Z,18.04
2022-09-01T18:08:04.172Z,18.06
2022-09-01T18:10:39.416Z,18.01
2022-09-01T18:13:10.062Z,17.98
2022-09-01T18:15:52.553Z,17.96
2022-09-01T18:18:24.550Z,17.87
2022-09-01T18:20:54.776Z,17.85
2022-09-01T18:23:21.926Z,17.82
2022-09-01T18:26:38.148Z,17.78
2022-09-01T18:29:06.021Z,17.72
2022-09-01T18:31:33.853Z,17.67
2022-09-01T18:34:15.773Z,17.64
2022-09-01T18:37:07.719Z,17.62
2022-09-01T18:40:02.064Z,17.53
2022-09-01T18:42:49.771Z,17.50
2022-09-01T18:45:29.105Z,17.50
2022-09-01T18:48:19.749Z,17.41
2022-09-01T18:50:53.084Z,17.36
2022-09-01T18:53:44.431Z,17.33
2022-09-01T18:56:24.757Z,17.25
2022-09-01T18:59:17.621Z,17.17
2022-09-01T19:02:00.133Z,17.07
2022-09-01T19:04:31.710Z,16.91
2022-09-01T19:07:08.272Z,16.82
2022-09-01T19:09:45.455Z,16.83
2022-09-01T19:12:27.115Z,16.76
2022-09-01T19:15:11.541Z,16.72
2022-09-01T19:17:56.113Z,16.64
2022-09-01T19:20:29.772Z,16.56
2022-09-01T19:23:14.990Z,16.51
2022-09-01T19:25:42.356Z,16.48
2022-09-01T19:28:15.884Z,16.48
2022-09-01T19:30:48.161Z,16.44
2022-09-01T19:33:20.263Z,16.41
2022-09-01T19:35:48.510Z,16.33
2022-09-01T19:38:20.859Z,16.28
2022-09-01T19:40:50.167Z,16.18
2022-09-01T19:43:18.143Z,16.12
2022-09-01T19:46:00.519Z,16.04
2022-09-01T19:48:55.702Z,15.90
2022-09-01T19:51:30.389Z,15.84
2022-09-01T19:54:12.566Z,15.81
2022-09-01T19:56:49.722Z,15.70
2022-09-01T19:59:19.472Z,15.59
2022-09-01T20:01:58.013Z,15.51
2022-09-01T20:04:36.812Z,15.49
2022-09-01T20:07:04.482Z,15.45
2022-09-01T20:09:43.787Z,15.49
2022-09-01T20:12:40.076Z,15.48
2022-09-01T20:15:16.112Z,15.44
2022-09-01T20:17:47.947Z,15.37
2022-09-01T20:20:17.608Z,15.32
2022-09-01T20:23:09.037Z,15.21
2022-09-01T20:25:43.134Z,15.11
2022-09-01T20:28:31.232Z,15.10
2022-09-01T20:31:12.288Z,15.03
2022-09-01T20:33:51.081Z,14.97
2022-09-01T20:36:28.331Z,14.88
2022-09-01T20:39:22.255Z,14.86
2022-09-01T20:42:02.927Z,14.73
2022-09-01T20:44:45.125Z,14.75
2022-09-01T20:47:12.712Z,14.76
2022-09-01T20:49:40.195Z,14.71
2022-09-01T20:52:12.481Z,14.61
2022-09-01T20:54:50.484Z,14.54
2022-09-01T20:58:08.279Z,14.56
2022-09-01T21:00:47.863Z,14.48
2022-09-01T21:03:50.868Z,14.45
2022-09-01T21:06:44.833Z,14.40
2022-09-01T21:09:24.279Z,14.32
2022-09-01T21:12:13.239Z,14.27
2022-09-01T21:15:01.907Z,14.18
2022-09-01T21:17:48.847Z,14.12
2022-09-01T21:20:31.036Z,14.10
2022-09-01T21:22:58.337Z,14.06
2022-09-01T21:25:25.358Z,14.00
2022-09-01T21:27:56.055Z,14.03
2022-09-01T21:30:24.122Z,13.96
2022-09-01T21:32:56.681Z,13.86
2022-09-01T21:35:24.093Z,13.92
2022-09-01T21:37:51.709Z,13.93
2022-09-01T21:40:22.169Z,13.96
2022-09-01T21:42:59.987Z,13.92
2022-09-01T21:45:27.402Z,13.84
2022-09-01T21:47:54.576Z,13.76
2022-09-01T21:50:23.431Z,13.78
2022-09-01T21:52:50.897Z,13.70
2022-09-01T21:55:22.520Z,13.73
2022-09-01T21:57:51.073Z,13.77
2022-09-01T22:00:22.023Z,13.67
2022-09-01T22:02:49.217Z,13.62
2022-09-01T22:05:16.696Z,13.57
2022-09-01T22:07:45.785Z,13.53
2022-09-01T22:10:17.911Z,13.45
2022-09-01T22:12:46.401Z,13.48
2022-09-01T22:15:16.002Z,13.48
2022-09-01T22:17:43.367Z,13.39
2022-09-01T22:20:12.557Z,13.28
2022-09-01T22:22:39.895Z,13.14
2022-09-01T22:25:13.294Z,13.13
2022-09-01T22:27:40.706Z,13.15
2022-09-01T22:30:08.770Z,13.09
2022-09-01T22:32:38.946Z,13.14
2022-09-01T22:35:08.485Z,13.10
2022-09-01T22:37:36.593Z,13.01
2022-09-01T22:40:05.365Z,12.97
2022-09-01T22:42:32.950Z,12.95
2022-09-01T22:44:59.987Z,12.83
2022-09-01T22:47:27.024Z,12.77
2022-09-01T22:49:54.884Z,12.76
2022-09-01T22:52:22.225Z,12.75
2022-09-01T22:54:50.420Z,12.78
2022-09-01T22:57:17.499Z,12.77
2022-09-01T22:59:44.549Z,12.72
2022-09-01T23:02:13.741Z,12.74
2022-09-01T23:04:42.516Z,12.65
2022-09-01T23:07:09.833Z,12.59
2022-09-01T23:09:36.872Z,12.65
2022-09-01T23:12:04.205Z,12.69
2022-09-01T23:14:32.004Z,12.69
2022-09-01T23:16:59.514Z,12.69
2022-09-01T23:19:26.540Z,12.65
2022-09-01T23:21:53.723Z,12.59
2022-09-01T23:24:20.995Z,12.52
2022-09-01T23:26:48.915Z,12.48
2022-09-01T23:29:16.360Z,12.49
2022-09-01T23:31:44.265Z,12.51
2022-09-01T23:34:13.203Z,12.46
2022-09-01T23:36:41.531Z,12.41
2022-09-01T23:39:08.617Z,12.40
2022-09-01T23:41:37.298Z,12.32
2022-09-01T23:44:05.982Z,12.28
2022-09-01T23:46:36.920Z,12.20
2022-09-01T23:49:05.303Z,12.21
2022-09-01T23:51:32.391Z,12.24
2022-09-01T23:53:59.483Z,12.18
2022-09-01T23:56:28.643Z,12.14
2022-09-01T23:58:55.877Z,12.09
